createdAt,value
2023-01-26T00:02:18.483Z,100323.34
2023-01-26T00:04:45.797Z,100319.94
2023-01-26T00:07:13.218Z,100319.09
2023-01-26T00:09:40.676Z,100319.09
2023-01-26T00:12:09.152Z,100315.63
2023-01-26T00:14:50.173Z,100308.63
2023-01-26T00:17:26.540Z,100321.56
2023-01-26T00:19:56.862Z,100311.91
2023-01-26T00:22:26.468Z,100318.94
2023-01-26T00:24:56.527Z,100306.78
2023-01-26T00:27:24.105Z,100311.09
2023-01-26T00:29:51.560Z,100303.28
2023-01-26T00:32:19.045Z,100308.47
2023-01-26T00:34:46.472Z,100298.91
2023-01-26T00:37:13.925Z,100298.00
2023-01-26T00:39:42.779Z,100298.84
2023-01-26T00:42:14.076Z,100302.28
2023-01-26T00:44:43.519Z,100293.63
2023-01-26T00:47:12.740Z,100308.41
2023-01-26T00:49:40.991Z,100309.25
2023-01-26T00:52:08.487Z,100301.44
2023-01-26T00:54:35.991Z,100294.53
2023-01-26T00:57:03.382Z,100302.31
2023-01-26T00:59:32.598Z,100299.66
2023-01-26T01:02:02.974Z,100303.06
2023-01-26T01:04:30.982Z,100303.03
2023-01-26T01:07:00.381Z,100305.59
2023-01-26T01:09:29.069Z,100307.38
2023-01-26T01:11:56.260Z,100309.97
2023-01-26T01:14:23.919Z,100306.47
2023-01-26T01:16:51.317Z,100295.16
2023-01-26T01:19:19.325Z,100303.00
2023-01-26T01:21:46.841Z,100299.53
2023-01-26T01:24:15.192Z,100295.97
2023-01-26T01:26:42.659Z,100287.25
2023-01-26T01:29:13.934Z,100291.66
2023-01-26T01:31:43.768Z,100295.19
2023-01-26T01:34:11.432Z,100282.16
2023-01-26T01:36:40.932Z,100294.41
2023-01-26T01:39:08.311Z,100289.09
2023-01-26T01:41:35.780Z,100283.03
2023-01-26T01:44:24.451Z,100283.75
2023-01-26T01:46:59.254Z,100277.72
2023-01-26T01:49:43.103Z,100276.97
2023-01-26T01:52:15.362Z,100272.63
2023-01-26T01:54:52.764Z,100268.22
2023-01-26T01:57:28.848Z,100263.03
2023-01-26T02:00:07.437Z,100261.28
2023-01-26T02:02:35.404Z,100261.28
2023-01-26T02:05:14.240Z,100259.53
2023-01-26T02:07:45.876Z,100259.69
2023-01-26T02:10:19.453Z,100254.38
2023-01-26T02:12:55.874Z,100245.63
2023-01-26T02:15:24.061Z,100255.25
2023-01-26T02:17:55.412Z,100264.88
2023-01-26T02:20:47.225Z,100258.81
2023-01-26T02:23:29.438Z,100253.59
2023-01-26T02:25:57.585Z,100250.94
2023-01-26T02:28:29.773Z,100249.97
2023-01-26T02:30:57.797Z,100250.72
2023-01-26T02:33:29.637Z,100242.16
2023-01-26T02:35:59.860Z,100250.03
2023-01-26T02:38:34.398Z,100244.78
2023-01-26T02:41:08.286Z,100236.13
2023-01-26T02:43:37.316Z,100230.00
2023-01-26T02:46:05.513Z,100228.16
2023-01-26T02:48:52.293Z,100225.59
2023-01-26T02:51:19.497Z,100234.31
2023-01-26T02:53:47.068Z,100223.91
2023-01-26T02:56:15.509Z,100224.72
2023-01-26T02:58:42.942Z,100221.31
2023-01-26T03:01:10.469Z,100224.78
2023-01-26T03:03:45.370Z,100216.13
2023-01-26T03:06:15.647Z,100217.72
2023-01-26T03:08:43.203Z,100215.16
2023-01-26T03:11:10.738Z,100210.72
2023-01-26T03:13:39.216Z,100208.16
2023-01-26T03:16:10.609Z,100202.03
2023-01-26T03:18:57.877Z,100205.66
2023-01-26T03:21:43.514Z,100201.19
2023-01-26T03:24:31.588Z,100204.69
2023-01-26T03:27:19.255Z,100196.00
2023-01-26T03:29:47.070Z,100197.69
2023-01-26T03:32:14.544Z,100191.72
2023-01-26T03:34:43.925Z,100190.91
2023-01-26T03:37:13.292Z,100184.88
2023-01-26T03:39:59.217Z,100180.47
2023-01-26T03:42:50.547Z,100174.44
2023-01-26T03:45:36.744Z,100182.13
2023-01-26T03:48:33.815Z,100164.00
2023-01-26T03:51:27.139Z,100163.97
2023-01-26T03:54:12.799Z,100166.59
2023-01-26T03:56:40.291Z,100156.22
2023-01-26T03:59:08.724Z,100158.78
2023-01-26T04:01:42.190Z,100164.09
2023-01-26T04:04:30.122Z,100155.34
2023-01-26T04:07:16.412Z,100148.47
2023-01-26T04:09:44.229Z,100135.47
2023-01-26T04:12:12.496Z,100138.94
2023-01-26T04:14:58.775Z,100139.81
2023-01-26T04:17:44.867Z,100141.53
2023-01-26T04:20:33.083Z,100135.34
2023-01-26T04:23:00.157Z,100132.78
2023-01-26T04:25:27.693Z,100136.25
2023-01-26T04:27:55.186Z,100130.16
2023-01-26T04:30:22.604Z,100130.09
2023-01-26T04:32:52.054Z,100134.34
2023-01-26T04:35:19.615Z,100136.19
2023-01-26T04:37:48.163Z,100132.69
2023-01-26T04:40:16.646Z,100131.94
2023-01-26T04:42:43.995Z,100127.63
2023-01-26T04:45:12.198Z,100122.34
2023-01-26T04:47:40.376Z,100123.28
2023-01-26T04:50:08.599Z,100120.72
2023-01-26T04:52:35.869Z,100113.78
2023-01-26T04:55:03.467Z,100118.97
2023-01-26T04:57:30.749Z,100108.59
2023-01-26T04:59:58.314Z,100113.81
2023-01-26T05:02:25.375Z,100117.25
2023-01-26T05:04:52.659Z,100115.47
2023-01-26T05:07:20.069Z,100112.88
2023-01-26T05:09:47.592Z,100113.75
2023-01-26T05:12:33.442Z,100105.03
2023-01-26T05:15:01.086Z,100100.72
2023-01-26T05:17:29.343Z,100108.50
2023-01-26T05:19:56.916Z,100105.91
2023-01-26T05:22:26.430Z,100102.47
2023-01-26T05:24:54.079Z,100102.47
2023-01-26T05:27:23.502Z,100095.44
2023-01-26T05:29:51.866Z,100092.84
2023-01-26T05:32:19.924Z,100098.09
2023-01-26T05:34:47.415Z,100090.31
2023-01-26T05:37:15.881Z,100089.47
2023-01-26T05:39:43.199Z,100083.38
2023-01-26T05:42:13.916Z,100089.47
2023-01-26T05:44:41.241Z,100090.28
2023-01-26T05:47:08.788Z,100097.25
2023-01-26T05:49:43.135Z,100093.81
2023-01-26T05:52:16.280Z,100087.75
2023-01-26T05:54:44.053Z,100086.91
2023-01-26T05:57:12.422Z,100088.59
2023-01-26T05:59:40.204Z,100096.47
2023-01-26T06:02:10.014Z,100097.31
2023-01-26T06:04:37.459Z,100099.06
2023-01-26T06:07:05.152Z,100092.84
2023-01-26T06:09:33.350Z,100089.56
2023-01-26T06:12:00.760Z,100079.03
2023-01-26T06:14:28.159Z,100087.69
2023-01-26T06:16:57.188Z,100092.00
2023-01-26T06:19:26.663Z,100092.75
2023-01-26T06:21:55.176Z,100078.97
2023-01-26T06:24:24.142Z,100086.78
2023-01-26T06:26:51.661Z,100090.19
2023-01-26T06:29:19.123Z,100092.78
2023-01-26T06:31:46.559Z,100093.53
2023-01-26T06:34:17.086Z,100098.69
2023-01-26T06:36:44.588Z,100096.06
2023-01-26T06:39:13.029Z,100092.53
2023-01-26T06:41:42.709Z,100088.25
2023-01-26T06:44:11.579Z,100092.56
2023-01-26T06:46:40.161Z,100085.56
2023-01-26T06:49:07.479Z,100089.94
2023-01-26T06:51:48.337Z,100089.09
2023-01-26T06:54:21.930Z,100088.25
2023-01-26T06:56:49.280Z,100094.28
2023-01-26T06:59:16.846Z,100086.50
2023-01-26T07:01:50.546Z,100090.78
2023-01-26T07:04:18.815Z,100085.59
2023-01-26T07:06:46.366Z,100078.66
2023-01-26T07:09:14.750Z,100086.47
2023-01-26T07:11:42.165Z,100085.59
2023-01-26T07:14:09.676Z,100083.06
2023-01-26T07:16:39.216Z,100082.16
2023-01-26T07:19:08.257Z,100083.03
2023-01-26T07:21:36.445Z,100084.75
2023-01-26T07:24:04.749Z,100078.66
2023-01-26T07:26:31.988Z,100075.22
2023-01-26T07:29:01.749Z,100075.22
2023-01-26T07:31:28.981Z,100082.13
2023-01-26T07:33:56.468Z,100082.28
2023-01-26T07:36:24.954Z,100073.56
2023-01-26T07:38:54.412Z,100071.88
2023-01-26T07:41:21.877Z,100068.41
2023-01-26T07:43:51.288Z,100073.59
2023-01-26T07:46:18.406Z,100075.28
2023-01-26T07:48:45.808Z,100066.69
2023-01-26T07:51:13.240Z,100070.13
2023-01-26T07:53:42.562Z,100065.78
2023-01-26T07:56:16.385Z,100068.41
2023-01-26T07:58:43.971Z,100064.94
2023-01-26T08:01:15.875Z,100071.13
2023-01-26T08:03:45.829Z,100067.66
2023-01-26T08:06:15.245Z,100065.88
2023-01-26T08:08:43.680Z,100077.09
2023-01-26T08:17:22.114Z,100072.00
2023-01-26T08:19:49.134Z,100072.00
2023-01-26T08:22:16.406Z,100070.31
2023-01-26T08:24:43.458Z,100061.63
2023-01-26T08:27:10.831Z,100065.97
2023-01-26T08:29:39.004Z,100061.66
2023-01-26T08:32:06.599Z,100067.78
2023-01-26T08:34:36.693Z,100066.00
2023-01-26T08:37:03.859Z,100049.50
2023-01-26T08:39:31.131Z,100054.72
2023-01-26T08:41:58.740Z,100052.94
2023-01-26T08:44:26.028Z,100052.91
2023-01-26T08:46:53.215Z,100060.75
2023-01-26T08:49:20.456Z,100051.22
2023-01-26T08:51:47.485Z,100044.38
2023-01-26T08:54:14.905Z,100051.31
2023-01-26T08:56:42.325Z,100043.50
2023-01-26T08:59:09.490Z,100053.03
2023-01-26T09:01:37.790Z,100053.06
2023-01-26T09:04:05.296Z,100060.00
2023-01-26T09:06:33.482Z,100052.22
2023-01-26T09:09:00.668Z,100053.13
2023-01-26T09:11:28.216Z,100053.16
2023-01-26T09:13:58.032Z,100052.25
2023-01-26T09:16:25.971Z,100051.38
2023-01-26T09:18:54.012Z,100054.00
2023-01-26T09:21:26.061Z,100050.53
2023-01-26T09:23:53.429Z,100054.88
2023-01-26T09:26:20.639Z,100059.19
2023-01-26T09:28:57.859Z,100056.56
2023-01-26T09:31:25.372Z,100054.94
2023-01-26T09:33:52.887Z,100047.94
2023-01-26T09:36:22.203Z,100044.47
2023-01-26T09:38:50.479Z,100053.19
2023-01-26T09:41:45.133Z,100045.34
2023-01-26T09:44:24.537Z,100037.53
2023-01-26T09:47:01.293Z,100040.13
2023-01-26T09:50:26.129Z,100034.09
2023-01-26T09:53:03.559Z,100045.34
2023-01-26T09:55:31.991Z,100042.75
2023-01-26T09:58:04.382Z,100043.63
2023-01-26T10:00:46.529Z,100045.34
2023-01-26T10:03:41.241Z,100055.84
2023-01-26T10:06:31.623Z,100047.16
2023-01-26T10:09:03.510Z,100044.63
2023-01-26T10:11:45.218Z,100041.97
2023-01-26T10:14:15.180Z,100036.78
2023-01-26T10:16:47.309Z,100035.91
2023-01-26T10:19:23.916Z,100039.38
2023-01-26T10:21:54.205Z,100025.50
2023-01-26T10:24:24.365Z,100030.72
2023-01-26T10:26:57.449Z,100029.03
2023-01-26T10:29:26.192Z,100031.63
2023-01-26T10:31:53.381Z,100020.38
2023-01-26T10:34:26.586Z,100021.25
2023-01-26T10:37:23.114Z,100024.72
2023-01-26T10:40:07.773Z,100020.38
2023-01-26T10:42:36.866Z,100006.50
2023-01-26T10:45:24.381Z,100008.22
2023-01-26T10:48:20.466Z,100007.31
2023-01-26T10:50:48.869Z,100008.16
2023-01-26T10:53:30.445Z,99997.78
2023-01-26T10:56:18.015Z,99997.78
2023-01-26T10:58:57.474Z,100006.44
2023-01-26T11:01:27.830Z,99996.88
2023-01-26T11:04:15.487Z,99996.03
2023-01-26T11:06:42.863Z,99992.59
2023-01-26T11:09:21.503Z,99992.59
2023-01-26T11:12:06.056Z,99989.06
2023-01-26T11:14:33.778Z,99991.66
2023-01-26T11:17:20.412Z,99997.69
2023-01-26T11:20:24.579Z,99992.53
2023-01-26T11:23:03.475Z,99987.25
2023-01-26T11:26:02.683Z,99987.19
2023-01-26T11:28:51.777Z,99982.00
2023-01-26T11:31:33.116Z,99985.44
2023-01-26T11:34:13.213Z,99979.41
2023-01-26T11:37:09.191Z,99969.81
2023-01-26T11:39:51.909Z,99970.69
2023-01-26T11:42:40.435Z,99966.38
2023-01-26T11:45:36.969Z,99964.72
2023-01-26T11:48:22.755Z,99960.38
2023-01-26T11:50:52.877Z,99949.06
2023-01-26T11:53:58.481Z,99955.97
2023-01-26T11:56:39.821Z,99950.75
2023-01-26T11:59:20.380Z,99953.34
2023-01-26T12:02:27.465Z,99955.13
2023-01-26T12:05:01.330Z,99944.69
2023-01-26T12:07:34.084Z,99945.56
2023-01-26T12:10:05.629Z,99941.25
2023-01-26T12:12:43.759Z,99938.66
2023-01-26T12:15:30.056Z,99926.53
2023-01-26T12:18:06.394Z,99935.25
2023-01-26T12:20:53.920Z,99939.56
2023-01-26T12:23:39.464Z,99943.00
2023-01-26T12:26:18.991Z,99943.06
2023-01-26T12:29:28.364Z,99934.34
2023-01-26T12:32:14.950Z,99936.09
2023-01-26T12:34:42.135Z,99936.06
2023-01-26T12:37:32.824Z,99945.63
2023-01-26T12:40:09.520Z,99934.28
2023-01-26T12:42:46.471Z,99935.19
2023-01-26T12:45:20.978Z,99917.91
2023-01-26T12:47:51.780Z,99917.03
2023-01-26T12:50:39.041Z,99910.97
2023-01-26T12:53:32.693Z,99910.09
2023-01-26T12:56:17.755Z,99908.34
2023-01-26T12:58:50.628Z,99907.41
2023-01-26T13:01:22.431Z,99912.66
2023-01-26T13:04:04.461Z,99916.16
2023-01-26T13:06:33.946Z,99910.06
2023-01-26T13:09:16.647Z,99909.19
2023-01-26T13:11:47.175Z,99904.00
2023-01-26T13:14:37.821Z,99904.00
2023-01-26T13:17:16.952Z,99901.38
2023-01-26T13:19:44.395Z,99904.88
2023-01-26T13:22:25.690Z,99901.44
2023-01-26T13:25:12.650Z,99899.69
2023-01-26T13:27:40.016Z,99898.81
2023-01-26T13:30:26.144Z,99897.94
2023-01-26T13:33:02.406Z,99902.28
2023-01-26T13:35:31.165Z,99909.22
2023-01-26T13:38:10.241Z,99899.66
2023-01-26T13:40:42.771Z,99905.78
2023-01-26T13:43:40.616Z,99913.59
2023-01-26T13:46:19.134Z,99913.56
2023-01-26T13:48:48.734Z,99904.00
2023-01-26T13:51:17.912Z,99895.34
2023-01-26T13:53:50.380Z,99899.69
2023-01-26T13:56:30.401Z,99895.34
2023-01-26T13:59:17.722Z,99897.06
2023-01-26T14:01:51.377Z,99904.03
2023-01-26T14:04:32.604Z,99890.13
2023-01-26T14:07:19.320Z,99886.66
2023-01-26T14:09:55.206Z,99891.84
2023-01-26T14:12:45.889Z,99889.25
2023-01-26T14:15:33.066Z,99893.59
2023-01-26T14:18:07.092Z,99885.78
2023-01-26T14:20:38.275Z,99877.97
2023-01-26T14:23:11.681Z,99890.97
2023-01-26T14:25:39.708Z,99890.97
2023-01-26T14:28:13.475Z,99884.88
2023-01-26T14:30:43.138Z,99890.97
2023-01-26T14:33:15.818Z,99884.84
2023-01-26T14:35:55.302Z,99884.00
2023-01-26T14:38:22.563Z,99881.41
2023-01-26T14:40:55.197Z,99884.91
2023-01-26T14:43:22.688Z,99881.44
2023-01-26T14:45:55.303Z,99884.91
2023-01-26T14:48:37.836Z,99879.66
2023-01-26T14:51:11.295Z,99879.69
2023-01-26T14:53:38.559Z,99880.59
2023-01-26T14:56:18.662Z,99880.53
2023-01-26T14:58:53.320Z,99889.22
2023-01-26T15:01:23.042Z,99881.44
2023-01-26T15:03:57.640Z,99881.44
2023-01-26T15:06:29.642Z,99884.03
2023-01-26T15:09:21.605Z,99890.97
2023-01-26T15:12:17.341Z,99880.59
2023-01-26T15:14:46.190Z,99883.16
2023-01-26T15:17:41.578Z,99881.41
2023-01-26T15:20:24.100Z,99881.41
2023-01-26T15:22:53.568Z,99873.59
2023-01-26T15:25:29.185Z,99870.97
2023-01-26T15:27:59.564Z,99869.25
2023-01-26T15:30:34.271Z,99873.59
2023-01-26T15:33:02.460Z,99872.75
2023-01-26T15:35:32.736Z,99873.59
2023-01-26T15:38:14.010Z,99870.16
2023-01-26T15:40:41.223Z,99861.47
2023-01-26T15:43:19.506Z,99866.69
2023-01-26T15:45:57.519Z,99853.66
2023-01-26T15:48:25.683Z,99864.06
2023-01-26T15:50:53.718Z,99867.53
2023-01-26T15:53:22.530Z,99871.03
2023-01-26T15:55:56.408Z,99872.75
2023-01-26T15:58:29.249Z,99874.50
2023-01-26T16:00:59.192Z,99881.44
2023-01-26T16:03:26.626Z,99884.91
2023-01-26T16:05:54.415Z,99881.44
2023-01-26T16:08:23.597Z,99879.69
2023-01-26T16:10:51.608Z,99880.56
2023-01-26T16:13:20.266Z,99877.09
2023-01-26T16:15:53.297Z,99877.94
2023-01-26T16:18:26.714Z,99880.53
2023-01-26T16:20:54.083Z,99879.69
2023-01-26T16:23:24.754Z,99888.38
2023-01-26T16:25:53.601Z,99887.41
2023-01-26T16:28:21.189Z,99890.00
2023-01-26T16:30:51.131Z,99884.75
2023-01-26T16:33:24.986Z,99878.66
2023-01-26T16:35:52.473Z,99875.16
2023-01-26T16:38:20.921Z,99882.03
2023-01-26T16:40:50.429Z,99883.78
2023-01-26T16:43:24.106Z,99880.31
2023-01-26T16:45:55.417Z,99870.00
2023-01-26T16:48:23.904Z,99875.22
2023-01-26T16:50:53.717Z,99877.75
2023-01-26T16:53:27.835Z,99880.47
2023-01-26T16:55:55.622Z,99878.69
2023-01-26T16:58:26.803Z,99885.53
2023-01-26T17:00:55.671Z,99882.03
2023-01-26T17:03:23.699Z,99890.72
2023-01-26T17:05:51.127Z,99883.75
2023-01-26T17:08:18.481Z,99875.94
2023-01-26T17:11:19.938Z,99880.25
2023-01-26T17:13:48.735Z,99884.63
2023-01-26T17:16:20.958Z,99882.97
2023-01-26T17:18:49.509Z,99888.13
2023-01-26T17:21:19.944Z,99889.81
2023-01-26T17:23:54.103Z,99882.88
2023-01-26T17:26:22.215Z,99889.00
2023-01-26T17:28:52.992Z,99887.31
2023-01-26T17:31:22.632Z,99888.22
2023-01-26T17:33:52.542Z,99877.72
2023-01-26T17:36:22.245Z,99881.19
2023-01-26T17:38:55.391Z,99884.66
2023-01-26T17:41:23.908Z,99878.72
2023-01-26T17:43:51.645Z,99876.13
2023-01-26T17:46:25.175Z,99873.47
2023-01-26T17:48:55.158Z,99879.47
2023-01-26T17:51:23.810Z,99880.31
2023-01-26T17:53:51.816Z,99882.91
2023-01-26T17:56:22.128Z,99890.63
2023-01-26T17:58:52.868Z,99893.25
2023-01-26T18:01:22.037Z,99890.59
2023-01-26T18:03:54.291Z,99885.41
2023-01-26T18:06:22.243Z,99891.66
2023-01-26T18:08:56.461Z,99893.44
2023-01-26T18:11:24.156Z,99890.88
2023-01-26T18:13:53.627Z,99885.72
2023-01-26T18:16:22.510Z,99894.38
2023-01-26T18:18:57.963Z,99884.84
2023-01-26T18:21:35.485Z,99884.84
2023-01-26T18:24:05.447Z,99884.84
2023-01-26T18:26:38.518Z,99892.66
2023-01-26T18:29:07.339Z,99887.47
2023-01-26T18:31:47.597Z,99902.19
2023-01-26T18:34:15.674Z,99895.28
2023-01-26T18:36:45.844Z,99900.44
2023-01-26T18:39:14.990Z,99901.31
2023-01-26T18:41:44.745Z,99895.25
2023-01-26T18:44:12.590Z,99905.69
2023-01-26T18:46:40.814Z,99903.91
2023-01-26T18:49:11.165Z,99896.13
2023-01-26T18:51:39.173Z,99903.94
2023-01-26T18:54:20.503Z,99904.78
2023-01-26T18:56:48.121Z,99905.69
2023-01-26T18:59:15.883Z,99898.72
2023-01-26T19:01:44.124Z,99905.66
2023-01-26T19:04:13.452Z,99896.13
2023-01-26T19:06:41.486Z,99899.56
2023-01-26T19:09:09.446Z,99897.00
2023-01-26T19:11:39.563Z,99893.53
2023-01-26T19:14:09.090Z,99894.41
2023-01-26T19:16:37.904Z,99903.91
2023-01-26T19:19:06.281Z,99896.13
2023-01-26T19:21:34.581Z,99893.53
2023-01-26T19:24:08.754Z,99903.94
2023-01-26T19:26:37.774Z,99899.59
2023-01-26T19:29:06.391Z,99899.59
2023-01-26T19:31:36.751Z,99898.66
2023-01-26T19:34:10.933Z,99896.09
2023-01-26T19:36:41.585Z,99896.97
2023-01-26T19:39:11.601Z,99905.63
2023-01-26T19:41:42.093Z,99903.84
2023-01-26T19:44:16.393Z,99898.56
2023-01-26T19:46:45.873Z,99899.34
2023-01-26T19:49:22.460Z,99899.28
2023-01-26T19:51:51.223Z,99901.94
2023-01-26T19:54:19.648Z,99896.81
2023-01-26T19:56:49.124Z,99904.69
2023-01-26T19:59:17.495Z,99903.00
2023-01-26T20:01:51.781Z,99902.16
2023-01-26T20:04:20.100Z,99903.03
2023-01-26T20:06:50.067Z,99905.63
2023-01-26T20:09:18.201Z,99903.00
2023-01-26T20:11:46.645Z,99909.06
2023-01-26T20:14:15.155Z,99902.09
2023-01-26T20:16:44.018Z,99893.44
2023-01-26T20:19:14.445Z,99899.53
2023-01-26T20:21:43.363Z,99906.47
2023-01-26T20:24:16.209Z,99902.94
2023-01-26T20:26:46.706Z,99909.88
2023-01-26T20:29:17.365Z,99902.94
2023-01-26T20:31:47.393Z,99902.94
2023-01-26T20:34:17.000Z,99892.47
2023-01-26T20:36:56.711Z,99893.38
2023-01-26T20:39:25.868Z,99889.00
2023-01-26T20:41:55.847Z,99891.63
2023-01-26T20:44:30.175Z,99885.56
2023-01-26T20:46:59.359Z,99883.78
2023-01-26T20:49:26.851Z,99884.72
2023-01-26T20:52:01.106Z,99885.56
2023-01-26T20:54:28.917Z,99884.72
2023-01-26T20:56:58.803Z,99885.50
2023-01-26T20:59:27.040Z,99883.63
2023-01-26T21:01:54.888Z,99887.06
2023-01-26T21:04:22.753Z,99884.44
2023-01-26T21:06:50.586Z,99876.56
2023-01-26T21:09:19.030Z,99876.53
2023-01-26T21:11:46.855Z,99865.22
2023-01-26T21:14:14.164Z,99868.69
2023-01-26T21:16:42.165Z,99863.63
2023-01-26T21:19:09.718Z,99861.97
2023-01-26T21:21:37.096Z,99858.59
2023-01-26T21:24:06.144Z,99855.19
2023-01-26T21:26:34.029Z,99855.22
2023-01-26T21:29:01.659Z,99859.56
2023-01-26T21:31:32.851Z,99865.63
2023-01-26T21:34:01.645Z,99862.94
2023-01-26T21:36:31.728Z,99868.09
2023-01-26T21:39:00.756Z,99869.75
2023-01-26T21:41:51.819Z,99874.03
2023-01-26T21:44:53.608Z,99873.97
2023-01-26T21:47:21.259Z,99867.03
2023-01-26T21:49:54.953Z,99873.03
2023-01-26T21:52:42.885Z,99864.41
2023-01-26T21:55:10.290Z,99851.38
2023-01-26T21:57:56.088Z,99859.13
2023-01-26T22:00:23.458Z,99862.53
2023-01-26T22:02:50.621Z,99860.81
2023-01-26T22:05:17.839Z,99856.59
2023-01-26T22:07:46.313Z,99851.50
2023-01-26T22:10:14.001Z,99861.03
2023-01-26T22:12:42.777Z,99852.41
2023-01-26T22:15:10.658Z,99856.84
2023-01-26T22:17:37.730Z,99853.44
2023-01-26T22:20:06.463Z,99853.44
2023-01-26T22:22:34.850Z,99856.03
2023-01-26T22:25:02.151Z,99855.16
2023-01-26T22:27:29.474Z,99850.00
2023-01-26T22:29:56.991Z,99855.16
2023-01-26T22:32:24.489Z,99856.06
2023-01-26T22:34:51.985Z,99858.66
2023-01-26T22:37:19.320Z,99856.97
2023-01-26T22:39:49.245Z,99862.16
2023-01-26T22:42:16.254Z,99853.50
2023-01-26T22:44:43.820Z,99847.41
2023-01-26T22:47:11.269Z,99856.09
2023-01-26T22:49:38.778Z,99847.41
2023-01-26T22:52:06.944Z,99854.38
2023-01-26T22:54:34.166Z,99850.03
2023-01-26T22:57:01.605Z,99846.53
2023-01-26T22:59:30.129Z,99849.13
2023-01-26T23:01:57.520Z,99847.38
2023-01-26T23:04:25.114Z,99847.38
2023-01-26T23:06:52.473Z,99851.72
2023-01-26T23:09:20.998Z,99845.66
2023-01-26T23:11:48.538Z,99843.06
2023-01-26T23:14:17.047Z,99844.72
2023-01-26T23:16:44.556Z,99841.28
2023-01-26T23:19:11.946Z,99842.19
2023-01-26T23:21:39.277Z,99837.84
2023-01-26T23:24:08.318Z,99841.34
2023-01-26T23:26:35.802Z,99831.81
2023-01-26T23:29:03.718Z,99828.31
2023-01-26T23:31:32.326Z,99823.13
2023-01-26T23:34:01.771Z,99829.19
2023-01-26T23:36:31.411Z,99831.81
2023-01-26T23:38:58.744Z,99829.22
2023-01-26T23:41:26.134Z,99830.09
2023-01-26T23:43:53.594Z,99833.53
2023-01-26T23:46:21.089Z,99828.28
2023-01-26T23:48:48.496Z,99830.97
2023-01-26T23:51:16.617Z,99829.22
2023-01-26T23:53:43.949Z,99830.94
2023-01-26T23:56:15.782Z,99834.41
2023-01-26T23:58:43.235Z,99845.63
